createdAt,value
2018-05-02T00:01:07.432Z,105530.03
2018-05-02T00:03:34.998Z,105515.80
2018-05-02T00:06:02.523Z,105513.77
2018-05-02T00:08:30.054Z,105498.52
2018-05-02T00:10:57.705Z,105529.02
2018-05-02T00:15:57.761Z,105509.70
2018-05-02T00:18:25.291Z,105531.05
2018-05-02T00:20:52.801Z,105525.97
2018-05-02T00:23:20.341Z,105520.88
2018-05-02T00:25:47.857Z,105544.27
2018-05-02T00:28:15.424Z,105528.00
2018-05-02T00:30:42.946Z,105489.36
2018-05-02T00:33:10.454Z,105466.98
2018-05-02T00:35:38.004Z,105533.09
2018-05-02T00:38:05.546Z,105532.07
2018-05-02T00:40:33.090Z,105565.63
2018-05-02T00:43:00.745Z,105566.64
2018-05-02T00:45:28.306Z,105543.26
2018-05-02T00:47:55.888Z,105551.39
2018-05-02T00:50:23.361Z,105543.26
2018-05-02T00:52:50.924Z,105568.67
2018-05-02T00:55:18.621Z,105604.27
2018-05-02T00:57:46.148Z,105554.44
2018-05-02T01:00:13.744Z,105542.23
2018-05-02T01:02:41.268Z,105559.53
2018-05-02T01:05:08.788Z,105569.69
2018-05-02T01:07:36.326Z,105564.61
2018-05-02T01:10:03.855Z,105622.58
2018-05-02T01:12:31.398Z,105653.08
2018-05-02T01:14:58.942Z,105606.30
2018-05-02T01:17:26.618Z,105653.08
2018-05-02T01:19:54.114Z,105682.58
2018-05-02T01:22:21.689Z,105702.91
2018-05-02T01:24:49.420Z,105724.27
2018-05-02T01:27:16.940Z,105739.52
2018-05-02T01:29:44.466Z,105730.38
2018-05-02T01:32:12.026Z,105713.09
2018-05-02T01:34:39.550Z,105763.93
2018-05-02T01:37:07.062Z,105723.25
2018-05-02T01:39:34.601Z,105698.84
2018-05-02T01:42:02.132Z,105699.86
2018-05-02T01:44:29.790Z,105677.48
2018-05-02T01:46:58.274Z,105709.02
2018-05-02T01:49:25.801Z,105751.73
2018-05-02T01:51:53.347Z,105672.41
2018-05-02T01:54:20.910Z,105661.22
2018-05-02T01:56:48.438Z,105623.59
2018-05-02T01:59:15.951Z,105612.41
2018-05-02T02:01:43.838Z,105681.55
2018-05-02T02:04:11.357Z,105672.41
2018-05-02T02:06:38.933Z,105670.37
2018-05-02T02:09:06.465Z,105680.54
2018-05-02T02:11:34.049Z,105673.42
2018-05-02T02:14:01.581Z,105705.97
2018-05-02T02:16:29.093Z,105659.19
2018-05-02T02:18:56.698Z,105651.05
2018-05-02T02:21:24.197Z,105670.37
2018-05-02T02:23:51.893Z,105625.63
2018-05-02T02:26:19.411Z,105666.30
2018-05-02T02:28:46.925Z,105649.02
2018-05-02T02:31:14.498Z,105697.83
2018-05-02T02:33:42.063Z,105667.32
2018-05-02T02:36:09.595Z,105725.28
2018-05-02T02:38:37.150Z,105774.10
2018-05-02T02:41:04.677Z,105759.86
2018-05-02T02:43:32.227Z,105744.61
2018-05-02T02:45:59.769Z,105699.86
2018-05-02T02:48:27.285Z,105719.19
2018-05-02T02:50:54.831Z,105747.66
2018-05-02T02:53:22.358Z,105759.86
2018-05-02T02:55:50.136Z,105784.27
2018-05-02T02:58:17.666Z,105757.83
2018-05-02T03:00:45.189Z,105849.36
2018-05-02T03:03:12.742Z,105816.81
2018-05-02T03:05:40.330Z,105838.17
2018-05-02T03:08:07.863Z,105859.53
2018-05-02T03:10:35.381Z,105836.14
2018-05-02T03:13:02.926Z,105871.73
2018-05-02T03:15:30.450Z,105898.17
2018-05-02T03:17:57.990Z,105874.78
2018-05-02T03:20:25.510Z,105925.64
2018-05-02T03:22:53.065Z,105980.55
2018-05-02T03:25:20.613Z,105954.11
2018-05-02T03:27:48.598Z,105963.27
2018-05-02T03:30:16.119Z,106005.98
2018-05-02T03:32:43.649Z,106001.91
2018-05-02T03:35:11.194Z,106007.00
2018-05-02T03:37:38.709Z,105970.38
2018-05-02T03:40:06.260Z,105916.48
2018-05-02T03:42:33.840Z,105941.91
2018-05-02T03:45:01.495Z,105964.28
2018-05-02T03:47:29.009Z,105999.88
2018-05-02T03:49:56.546Z,105967.33
2018-05-02T03:52:24.085Z,105969.37
2018-05-02T03:54:51.799Z,105942.92
2018-05-02T03:57:19.453Z,105991.73
2018-05-02T03:59:58.926Z,105991.73
2018-05-02T04:02:38.325Z,106016.15
2018-05-02T04:05:17.725Z,106035.47
2018-05-02T04:07:45.265Z,106072.09
2018-05-02T04:10:12.807Z,105996.83
2018-05-02T04:12:40.372Z,106037.51
2018-05-02T04:15:07.894Z,106014.12
2018-05-02T04:17:35.454Z,105989.70
2018-05-02T04:20:02.999Z,106000.89
2018-05-02T04:22:30.571Z,106008.02
2018-05-02T04:24:58.411Z,105968.35
2018-05-02T04:27:25.925Z,105992.75
2018-05-02T04:29:53.465Z,105977.50
2018-05-02T04:32:20.985Z,105985.64
2018-05-02T04:34:48.534Z,105930.72
2018-05-02T04:37:16.061Z,105966.31
2018-05-02T04:39:43.746Z,105958.18
2018-05-02T04:42:11.270Z,105933.77
2018-05-02T04:44:38.811Z,105944.95
2018-05-02T04:47:06.366Z,105901.23
2018-05-02T04:49:33.883Z,105874.78
2018-05-02T04:52:01.425Z,105819.86
2018-05-02T04:54:28.945Z,105810.72
2018-05-02T04:56:56.488Z,105789.36
2018-05-02T04:59:24.024Z,105771.05
2018-05-02T05:01:51.623Z,105781.22
2018-05-02T05:04:19.166Z,105740.55
2018-05-02T05:06:46.704Z,105714.10
2018-05-02T05:09:14.263Z,105677.48
2018-05-02T05:11:41.785Z,105669.35
2018-05-02T05:14:09.326Z,105637.83
2018-05-02T05:16:36.849Z,105558.52
2018-05-02T05:19:04.454Z,105607.32
2018-05-02T05:21:31.979Z,105577.83
2018-05-02T05:23:59.503Z,105584.95
2018-05-02T05:26:27.064Z,105555.45
2018-05-02T05:28:54.594Z,105566.64
2018-05-02T05:31:22.162Z,105399.88
2018-05-02T05:33:49.690Z,105379.53
2018-05-02T05:36:17.222Z,105379.53
2018-05-02T05:38:44.794Z,105074.49
2018-05-02T05:41:12.313Z,105091.78
2018-05-02T05:43:39.890Z,105083.64
2018-05-02T05:46:07.410Z,104986.03
2018-05-02T05:48:34.981Z,104794.89
2018-05-02T05:51:02.519Z,104737.96
2018-05-02T05:53:30.034Z,104642.39
2018-05-02T05:55:58.101Z,104859.96
2018-05-02T05:58:25.771Z,104708.47
2018-05-02T06:00:53.375Z,104628.16
2018-05-02T06:03:20.875Z,104416.70
2018-05-02T06:05:48.414Z,104529.55
2018-05-02T06:08:15.949Z,104680.00
2018-05-02T06:10:43.651Z,104636.29
2018-05-02T06:13:11.164Z,104498.03
2018-05-02T06:15:38.692Z,104578.34
2018-05-02T06:18:06.238Z,104610.88
2018-05-02T06:20:34.677Z,104425.85
2018-05-02T06:23:02.259Z,104365.87
2018-05-02T06:25:29.807Z,104645.44
2018-05-02T06:27:57.321Z,104583.43
2018-05-02T06:30:24.893Z,104523.45
2018-05-02T06:32:52.409Z,104423.82
2018-05-02T06:35:19.926Z,104159.52
2018-05-02T06:37:47.519Z,104507.18
2018-05-02T06:40:15.050Z,104590.55
2018-05-02T06:42:42.577Z,104490.91
2018-05-02T06:45:10.123Z,104328.27
2018-05-02T06:47:37.650Z,104197.13
2018-05-02T06:50:05.213Z,104430.94
2018-05-02T06:52:32.770Z,104248.97
2018-05-02T06:55:00.294Z,104551.91
2018-05-02T06:57:27.872Z,104497.02
2018-05-02T06:59:55.394Z,104491.93
2018-05-02T07:02:22.920Z,104431.95
2018-05-02T07:04:50.874Z,104483.80
2018-05-02T07:07:18.402Z,104382.14
2018-05-02T07:09:45.931Z,104425.85
2018-05-02T07:12:13.479Z,104463.47
2018-05-02T07:14:41.003Z,104435.00
2018-05-02T07:17:08.947Z,104316.06
2018-05-02T07:19:36.457Z,104334.36
2018-05-02T07:22:03.985Z,104266.25
2018-05-02T07:24:31.571Z,104281.50
2018-05-02T07:26:59.094Z,104165.62
2018-05-02T07:29:26.629Z,104248.97
2018-05-02T07:31:54.202Z,104199.16
2018-05-02T07:34:21.729Z,104162.57
2018-05-02T07:36:49.253Z,104126.98
2018-05-02T07:39:16.814Z,104052.78
2018-05-02T07:41:44.417Z,104073.11
2018-05-02T07:44:11.880Z,104168.67
2018-05-02T07:46:39.466Z,104157.48
2018-05-02T07:49:07.010Z,104076.17
2018-05-02T07:51:34.590Z,104045.67
2018-05-02T07:54:02.122Z,103988.75
2018-05-02T07:56:29.677Z,103890.16
2018-05-02T07:58:57.625Z,103969.44
2018-05-02T08:01:25.137Z,103938.95
2018-05-02T08:03:52.653Z,103983.67
2018-05-02T08:06:20.185Z,103893.20
2018-05-02T08:08:47.697Z,103872.88
2018-05-02T08:11:15.242Z,103829.17
2018-05-02T08:13:42.761Z,103797.66
2018-05-02T08:16:10.301Z,103772.25
2018-05-02T08:18:37.844Z,103747.86
2018-05-02T08:21:05.356Z,103730.58
2018-05-02T08:23:32.925Z,103728.55
2018-05-02T08:26:00.449Z,103722.45
2018-05-02T08:28:27.970Z,103706.19
2018-05-02T08:30:55.514Z,103580.16
2018-05-02T08:33:23.021Z,103552.72
2018-05-02T08:35:50.587Z,103523.24
2018-05-02T08:38:18.122Z,103594.39
2018-05-02T08:40:45.656Z,103567.97
2018-05-02T08:43:13.193Z,103514.09
2018-05-02T08:45:40.766Z,103490.72
2018-05-02T08:48:08.277Z,103411.45
2018-05-02T08:50:35.815Z,103384.02
2018-05-02T08:53:03.382Z,103497.84
2018-05-02T08:55:30.899Z,103476.49
2018-05-02T08:57:58.409Z,103522.23
2018-05-02T09:00:26.002Z,103501.91
2018-05-02T09:02:53.510Z,103348.44
2018-05-02T09:05:21.470Z,103450.07
2018-05-02T09:07:48.977Z,103440.92
2018-05-02T09:10:16.510Z,103355.56
2018-05-02T09:12:44.053Z,103271.20
2018-05-02T09:15:11.566Z,103335.23
2018-05-02T09:17:39.105Z,103302.71
2018-05-02T09:20:06.632Z,103261.05
2018-05-02T09:22:34.207Z,103154.34
2018-05-02T09:25:01.724Z,103034.43
2018-05-02T09:27:29.237Z,103175.68
2018-05-02T09:29:56.969Z,103220.39
2018-05-02T09:32:24.491Z,103458.20
2018-05-02T09:34:52.006Z,103342.34
2018-05-02T09:37:19.705Z,103193.97
2018-05-02T09:39:47.217Z,103151.30
2018-05-02T09:42:14.725Z,102975.49
2018-05-02T09:44:42.410Z,102948.06
2018-05-02T09:47:09.925Z,102779.37
2018-05-02T09:49:37.433Z,102977.52
2018-05-02T09:52:04.998Z,103074.06
2018-05-02T09:54:32.707Z,103263.08
2018-05-02T09:57:00.226Z,103125.89
2018-05-02T09:59:27.744Z,103001.91
2018-05-02T10:01:55.277Z,103011.06
2018-05-02T10:04:23.034Z,103270.19
2018-05-02T10:06:50.551Z,103213.28
2018-05-02T10:09:18.077Z,102931.80
2018-05-02T10:11:45.623Z,102770.23
2018-05-02T10:14:13.602Z,102834.25
2018-05-02T10:16:41.109Z,102940.94
2018-05-02T10:19:08.626Z,102706.22
2018-05-02T10:21:36.318Z,103013.09
2018-05-02T10:24:03.837Z,103005.98
2018-05-02T10:26:31.359Z,102953.14
2018-05-02T10:28:58.898Z,103031.38
2018-05-02T10:31:26.877Z,102807.83
2018-05-02T10:33:54.398Z,102603.59
2018-05-02T10:36:21.919Z,102763.13
2018-05-02T10:38:49.473Z,103052.72
2018-05-02T10:41:16.997Z,102771.25
2018-05-02T10:43:44.536Z,102679.80
2018-05-02T10:46:12.107Z,102809.86
2018-05-02T10:48:39.626Z,102873.87
2018-05-02T10:51:07.138Z,102749.91
2018-05-02T10:53:34.673Z,102990.73
2018-05-02T10:56:02.229Z,102874.89
2018-05-02T10:58:29.774Z,102685.90
2018-05-02T11:00:57.290Z,102665.58
2018-05-02T11:03:24.801Z,102880.99
2018-05-02T11:05:52.739Z,102748.90
2018-05-02T11:08:20.257Z,102664.56
2018-05-02T11:10:47.770Z,102618.84
2018-05-02T11:13:15.458Z,102559.91
2018-05-02T11:15:42.972Z,102662.53
2018-05-02T11:18:10.526Z,102494.88
2018-05-02T11:20:38.090Z,102538.57
2018-05-02T11:23:05.602Z,102436.97
2018-05-02T11:25:33.118Z,102474.56
2018-05-02T11:28:00.669Z,102453.23
2018-05-02T11:30:28.191Z,102412.59
2018-05-02T11:32:55.946Z,102604.61
2018-05-02T11:35:23.468Z,102551.78
2018-05-02T11:37:50.996Z,102416.65
2018-05-02T11:40:18.538Z,102366.87
2018-05-02T11:42:46.234Z,102474.56
2018-05-02T11:45:13.754Z,102516.22
2018-05-02T11:47:41.282Z,102322.16
2018-05-02T11:50:08.822Z,102363.81
2018-05-02T11:52:36.338Z,102487.77
2018-05-02T11:55:03.899Z,102376.01
2018-05-02T11:57:31.431Z,102093.58
2018-05-02T11:59:58.969Z,102072.25
2018-05-02T12:02:26.478Z,102034.66
2018-05-02T12:04:54.017Z,102453.23
2018-05-02T12:07:21.529Z,102590.39
2018-05-02T12:09:49.046Z,102344.52
2018-05-02T12:12:16.590Z,102225.65
2018-05-02T12:14:44.123Z,102115.93
2018-05-02T12:17:11.644Z,102017.39
2018-05-02T12:19:39.216Z,101941.20
2018-05-02T12:22:06.743Z,102169.77
2018-05-02T12:24:34.280Z,102415.63
2018-05-02T12:27:02.043Z,102272.38
2018-05-02T12:29:29.562Z,102186.03
2018-05-02T12:31:57.087Z,102133.20
2018-05-02T12:34:25.066Z,102059.04
2018-05-02T12:36:52.594Z,102066.15
2018-05-02T12:39:20.106Z,102208.38
2018-05-02T12:41:47.651Z,102187.05
2018-05-02T12:44:15.511Z,101989.95
2018-05-02T12:46:43.122Z,101908.69
2018-05-02T12:49:10.639Z,101977.77
2018-05-02T12:51:38.390Z,102138.28
2018-05-02T12:54:05.917Z,102100.69
2018-05-02T12:56:33.430Z,102022.47
2018-05-02T12:59:00.969Z,102054.97
2018-05-02T13:01:28.597Z,102040.75
2018-05-02T13:03:56.119Z,101853.83
2018-05-02T13:06:23.638Z,101971.67
2018-05-02T13:08:51.177Z,102054.97
2018-05-02T13:11:19.091Z,102070.22
2018-05-02T13:13:46.606Z,101884.31
2018-05-02T13:16:14.125Z,101888.38
2018-05-02T13:18:41.660Z,102074.28
2018-05-02T13:21:09.216Z,102080.38
2018-05-02T13:23:36.726Z,102068.18
2018-05-02T13:26:04.260Z,102195.17
2018-05-02T13:28:31.782Z,102139.30
2018-05-02T13:30:59.425Z,101856.87
2018-05-02T13:33:26.945Z,101830.47
2018-05-02T13:35:54.453Z,101790.85
2018-05-02T13:38:21.984Z,101905.64
2018-05-02T13:40:49.502Z,101964.56
2018-05-02T13:43:17.158Z,102005.20
2018-05-02T13:45:44.665Z,101697.40
2018-05-02T13:48:12.191Z,101841.64
2018-05-02T13:50:39.757Z,101676.06
2018-05-02T13:53:07.267Z,101696.38
2018-05-02T13:55:34.878Z,101556.20
2018-05-02T13:58:02.353Z,101483.08
2018-05-02T14:00:29.871Z,101620.20
2018-05-02T14:02:57.382Z,101562.30
2018-05-02T14:05:24.953Z,101482.06
2018-05-02T14:07:52.465Z,101595.82
2018-05-02T14:10:19.969Z,101659.81
2018-05-02T14:12:47.514Z,101598.87
2018-05-02T14:15:15.019Z,101720.77
2018-05-02T14:17:42.591Z,101804.06
2018-05-02T14:20:10.105Z,101713.65
2018-05-02T14:22:37.635Z,101664.89
2018-05-02T14:25:05.178Z,101693.34
2018-05-02T14:27:32.693Z,101587.70
2018-05-02T14:30:00.220Z,101609.03
2018-05-02T14:32:27.757Z,101650.67
2018-05-02T14:34:55.280Z,101698.41
2018-05-02T14:37:22.822Z,101712.63
2018-05-02T14:39:50.329Z,101678.09
2018-05-02T14:42:17.902Z,101579.57
2018-05-02T14:44:45.418Z,101425.18
2018-05-02T14:47:12.933Z,101504.41
2018-05-02T14:49:40.674Z,101547.06
2018-05-02T14:52:08.189Z,101603.95
2018-05-02T14:54:35.753Z,101807.11
2018-05-02T14:57:03.328Z,101759.36
2018-05-02T14:59:30.850Z,101642.55
2018-05-02T15:01:58.424Z,101506.44
2018-05-02T15:04:25.970Z,101550.11
2018-05-02T15:06:53.497Z,101447.52
2018-05-02T15:09:21.010Z,101521.67
2018-05-02T15:11:48.597Z,101430.26
2018-05-02T15:14:16.114Z,101475.96
2018-05-02T15:16:43.635Z,101343.92
2018-05-02T15:19:11.353Z,101324.63
2018-05-02T15:21:38.857Z,101407.91
2018-05-02T15:24:06.366Z,101678.09
2018-05-02T15:26:33.893Z,101525.73
2018-05-02T15:29:01.411Z,101449.56
2018-05-02T15:31:28.950Z,101522.69
2018-05-02T15:33:56.470Z,101537.92
2018-05-02T15:36:24.361Z,101644.58
2018-05-02T15:38:51.878Z,101592.77
2018-05-02T15:41:19.388Z,101543.00
2018-05-02T15:43:46.922Z,101475.96
2018-05-02T15:46:14.433Z,101463.78
2018-05-02T15:48:42.000Z,101453.62
2018-05-02T15:51:09.519Z,101498.31
2018-05-02T15:53:37.025Z,101417.05
2018-05-02T15:56:04.576Z,101450.58
2018-05-02T15:58:32.202Z,101369.31
2018-05-02T16:01:00.194Z,101410.96
2018-05-02T16:03:27.844Z,101572.45
2018-05-02T16:05:55.748Z,101688.25
2018-05-02T16:08:23.602Z,101555.19
2018-05-02T16:10:51.131Z,101456.66
2018-05-02T16:13:18.702Z,101467.84
2018-05-02T16:15:46.326Z,101376.42
2018-05-02T16:18:13.928Z,101426.20
2018-05-02T16:20:41.474Z,101536.91
2018-05-02T16:23:09.434Z,101476.98
2018-05-02T16:25:36.954Z,101683.17
2018-05-02T16:28:04.495Z,101621.22
2018-05-02T16:30:32.110Z,101643.56
2018-05-02T16:32:59.677Z,101516.59
2018-05-02T16:35:27.255Z,101547.06
2018-05-02T16:37:54.798Z,101499.33
2018-05-02T16:40:22.318Z,101547.06
2018-05-02T16:42:49.853Z,101588.71
2018-05-02T16:45:17.546Z,101539.95
2018-05-02T16:47:45.066Z,101607.00
2018-05-02T16:50:12.582Z,101497.30
2018-05-02T16:52:40.127Z,101523.70
2018-05-02T16:55:07.655Z,101531.83
2018-05-02T16:57:35.276Z,101622.23
2018-05-02T17:00:02.810Z,101578.55
2018-05-02T17:02:30.387Z,101506.44
2018-05-02T17:04:58.047Z,101559.25
2018-05-02T17:07:25.578Z,101602.93
2018-05-02T17:09:53.097Z,101678.09
2018-05-02T17:12:21.046Z,101778.66
2018-05-02T17:14:48.569Z,101818.28
2018-05-02T17:17:16.089Z,101741.08
2018-05-02T17:19:43.698Z,101791.87
2018-05-02T17:22:11.322Z,101713.65
2018-05-02T17:24:38.851Z,101754.28
2018-05-02T17:27:06.480Z,101697.40
2018-05-02T17:29:34.001Z,101794.91
2018-05-02T17:32:01.524Z,101808.12
2018-05-02T17:34:29.067Z,101850.78
2018-05-02T17:36:56.594Z,101886.34
2018-05-02T17:39:24.129Z,101889.39
2018-05-02T17:41:51.679Z,101888.38
2018-05-02T17:44:19.394Z,101870.09
2018-05-02T17:46:47.886Z,101909.70
2018-05-02T17:49:15.429Z,101970.66
2018-05-02T17:51:43.068Z,102035.67
2018-05-02T17:54:10.632Z,102028.56
2018-05-02T17:56:38.228Z,102113.90
2018-05-02T17:59:05.798Z,102115.93
2018-05-02T18:01:33.493Z,102134.22
2018-05-02T18:04:01.335Z,102193.14
2018-05-02T18:06:29.102Z,102205.33
2018-05-02T18:08:56.618Z,102124.05
2018-05-02T18:11:24.140Z,102162.66
2018-05-02T18:14:02.346Z,102270.35
2018-05-02T18:16:30.878Z,102405.47
2018-05-02T18:18:58.539Z,102481.67
2018-05-02T18:21:26.407Z,102517.23
2018-05-02T18:23:53.921Z,102605.63
2018-05-02T18:26:22.362Z,102684.88
2018-05-02T18:28:49.905Z,102751.95
2018-05-02T18:31:17.443Z,102831.20
2018-05-02T18:33:45.017Z,102866.77
2018-05-02T18:36:12.533Z,102980.58
2018-05-02T18:38:40.059Z,103024.27
2018-05-02T18:41:07.633Z,103077.11
2018-05-02T18:43:35.153Z,103111.66
2018-05-02T18:46:02.667Z,103173.65
2018-05-02T18:48:30.214Z,103138.08
2018-05-02T18:50:57.910Z,103245.80
2018-05-02T18:53:25.423Z,103336.25
2018-05-02T18:55:52.986Z,103367.75
2018-05-02T18:58:21.038Z,103421.61
2018-05-02T19:00:48.555Z,103467.34
2018-05-02T19:03:16.126Z,103520.20
2018-05-02T19:05:44.153Z,103547.64
2018-05-02T19:08:11.778Z,103565.94
2018-05-02T19:10:39.325Z,103644.19
2018-05-02T19:13:06.857Z,103695.01
2018-05-02T19:15:34.725Z,103734.64
2018-05-02T19:18:07.676Z,103734.64
2018-05-02T19:20:35.925Z,103777.33
2018-05-02T19:23:03.581Z,103794.61
2018-05-02T19:25:36.913Z,103834.25
2018-05-02T19:28:04.494Z,103863.73
2018-05-02T19:30:32.006Z,103855.59
2018-05-02T19:33:05.053Z,103887.11
2018-05-02T19:35:32.637Z,103875.92
2018-05-02T19:38:00.113Z,103864.75
2018-05-02T19:40:33.243Z,103866.78
2018-05-02T19:43:06.390Z,103873.89
2018-05-02T19:45:34.381Z,103834.25
2018-05-02T19:48:02.053Z,103869.83
2018-05-02T19:50:29.581Z,103854.58
2018-05-02T19:52:57.136Z,103798.68
2018-05-02T19:55:24.682Z,103762.09
2018-05-02T19:57:52.208Z,103717.37
2018-05-02T20:00:25.490Z,103698.05
2018-05-02T20:02:58.897Z,103726.52
2018-05-02T20:05:26.786Z,103657.41
2018-05-02T20:07:54.297Z,103613.70
2018-05-02T20:10:27.470Z,103585.24
2018-05-02T20:13:00.634Z,103544.59
2018-05-02T20:15:28.172Z,103517.15
2018-05-02T20:17:55.758Z,103496.82
2018-05-02T20:20:23.312Z,103498.86
2018-05-02T20:22:51.278Z,103482.59
2018-05-02T20:25:18.879Z,103510.03
2018-05-02T20:27:46.699Z,103489.70
2018-05-02T20:30:14.225Z,103403.32
2018-05-02T20:32:41.733Z,103389.09
2018-05-02T20:35:09.455Z,103347.42
2018-05-02T20:37:36.974Z,103339.30
2018-05-02T20:40:04.525Z,103311.86
2018-05-02T20:42:32.269Z,103305.76
2018-05-02T20:44:59.785Z,103247.83
2018-05-02T20:47:27.303Z,103248.84
2018-05-02T20:49:54.849Z,103242.75
2018-05-02T20:52:22.390Z,103252.91
2018-05-02T20:54:49.982Z,103220.39
2018-05-02T20:57:17.485Z,103234.62
2018-05-02T20:59:45.649Z,103171.62
2018-05-02T21:02:13.198Z,103174.66
2018-05-02T21:04:40.809Z,103199.05
2018-05-02T21:07:08.353Z,103198.03
2018-05-02T21:09:35.936Z,103291.53
2018-05-02T21:12:03.454Z,103242.75
2018-05-02T21:14:31.021Z,103207.19
2018-05-02T21:16:59.001Z,103273.23
2018-05-02T21:19:26.555Z,103319.98
2018-05-02T21:21:54.436Z,103302.71
2018-05-02T21:24:22.014Z,103311.86
2018-05-02T21:26:49.541Z,103300.68
2018-05-02T21:29:17.078Z,103327.10
2018-05-02T21:31:44.624Z,103352.51
2018-05-02T21:34:12.158Z,103372.83
2018-05-02T21:36:39.733Z,103369.78
2018-05-02T21:39:07.321Z,103386.05
2018-05-02T21:41:34.853Z,103335.23
2018-05-02T21:44:02.415Z,103402.30
2018-05-02T21:46:30.086Z,103434.83
2018-05-02T21:48:57.611Z,103412.47
2018-05-02T21:51:25.123Z,103411.45
2018-05-02T21:53:53.111Z,103388.08
2018-05-02T21:56:20.630Z,103475.48
2018-05-02T21:58:48.150Z,103455.16
2018-05-02T22:01:15.711Z,103453.13
2018-05-02T22:03:43.606Z,103433.81
2018-05-02T22:06:11.120Z,103482.59
2018-05-02T22:08:38.638Z,103448.04
2018-05-02T22:11:06.202Z,103509.02
2018-05-02T22:13:33.722Z,103482.59
2018-05-02T22:16:01.364Z,103482.59
2018-05-02T22:18:28.907Z,103483.61
2018-05-02T22:20:56.427Z,103462.27
2018-05-02T22:23:23.997Z,103488.69
2018-05-02T22:25:51.509Z,103481.58
2018-05-02T22:28:19.026Z,103543.57
2018-05-02T22:30:46.567Z,103516.12
2018-05-02T22:33:14.101Z,103525.28
2018-05-02T22:35:41.633Z,103542.55
2018-05-02T22:38:09.146Z,103542.55
2018-05-02T22:40:36.776Z,103528.33
2018-05-02T22:43:04.381Z,103542.55
2018-05-02T22:45:32.294Z,103509.02
2018-05-02T22:47:59.886Z,103491.73
2018-05-02T22:50:27.397Z,103511.05
2018-05-02T22:52:55.390Z,103535.44
2018-05-02T22:55:22.915Z,103498.86
2018-05-02T22:57:50.565Z,103537.47
2018-05-02T23:00:18.149Z,103592.36
2018-05-02T23:02:45.685Z,103545.61
2018-05-02T23:05:13.211Z,103598.45
2018-05-02T23:07:40.763Z,103603.53
2018-05-02T23:10:08.497Z,103615.73
2018-05-02T23:12:36.018Z,103628.95
2018-05-02T23:15:03.541Z,103663.50
2018-05-02T23:17:31.086Z,103640.13
2018-05-02T23:19:58.886Z,103655.38
2018-05-02T23:22:26.414Z,103670.61
2018-05-02T23:24:53.930Z,103707.20
2018-05-02T23:27:21.473Z,103675.70
2018-05-02T23:29:49.010Z,103721.44
2018-05-02T23:32:16.575Z,103711.27
2018-05-02T23:34:44.146Z,103759.04
2018-05-02T23:37:11.681Z,103738.71
2018-05-02T23:39:39.198Z,103708.22
2018-05-02T23:42:06.742Z,103762.09
2018-05-02T23:44:34.290Z,103760.05
2018-05-02T23:47:01.805Z,103824.09
2018-05-02T23:49:29.345Z,103776.31
2018-05-02T23:51:56.867Z,103846.45
2018-05-02T23:54:24.611Z,103806.81
2018-05-02T23:56:52.127Z,103815.95
2018-05-02T23:59:19.646Z,103858.64
